Time;durP1;ratioP1;P1;durP2;ratioP2;P2;SDS_P1;SDS_P2;PMS_P1;PMS_P2;Temp;Humidity;BMP_temperature;BMP_pressure;BME280_temperature;BME280_humidity;BME280_pressure;Samples;Min_cycle;Max_cycle;Signal;HPM_P1;HPM_P2
2021/12/19 00:10:45;;;;;;;4.43;3.25;;;23.40;39.30;;;;;;5024995;28;20047;-44
2021/12/19 00:13:12;;;;;;;4.63;2.88;;;23.40;39.20;;;;;;5024360;28;20029;-44
2021/12/19 00:15:38;;;;;;;4.10;3.10;;;23.40;39.30;;;;;;5024166;28;20053;-44
2021/12/19 00:18:04;;;;;;;4.35;3.30;;;23.30;39.20;;;;;;5025635;28;20134;-44
2021/12/19 00:20:29;;;;;;;3.85;2.78;;;23.40;39.20;;;;;;5024768;28;20032;-44
2021/12/19 00:22:55;;;;;;;4.30;3.10;;;23.30;39.20;;;;;;5024706;28;20030;-44
2021/12/19 00:25:21;;;;;;;4.53;3.42;;;23.30;39.20;;;;;;5025556;28;20033;-44
2021/12/19 00:27:46;;;;;;;4.32;3.42;;;23.30;39.10;;;;;;5024193;28;20032;-44
2021/12/19 00:30:12;;;;;;;4.05;2.72;;;23.30;39.20;;;;;;5020759;28;20056;-44
2021/12/19 00:32:40;;;;;;;3.92;3.00;;;23.30;39.20;;;;;;5015657;28;20029;-44
2021/12/19 00:35:06;;;;;;;4.05;2.97;;;23.30;39.20;;;;;;5024598;28;20029;-44
2021/12/19 00:37:32;;;;;;;4.25;2.92;;;23.30;39.20;;;;;;5025008;28;20035;-44
2021/12/19 00:39:57;;;;;;;4.43;3.00;;;23.30;39.20;;;;;;5025131;28;20033;-44
2021/12/19 00:42:33;;;;;;;4.00;3.00;;;23.20;39.20;;;;;;5024471;28;20575;-44
2021/12/19 00:45:02;;;;;;;3.60;2.72;;;23.20;39.10;;;;;;5025146;28;20493;-44
2021/12/19 00:47:29;;;;;;;3.95;2.80;;;23.20;39.20;;;;;;5024487;28;20037;-44
2021/12/19 00:49:55;;;;;;;4.00;2.63;;;23.20;39.20;;;;;;5029100;28;20013;-44
2021/12/19 00:52:21;;;;;;;4.63;3.30;;;23.20;39.20;;;;;;5044328;28;20056;-44
2021/12/19 00:54:47;;;;;;;4.13;3.15;;;23.20;39.20;;;;;;5044314;28;20032;-44
2021/12/19 00:57:13;;;;;;;4.03;2.70;;;23.10;39.10;;;;;;5033868;28;20033;-44
2021/12/19 00:59:38;;;;;;;3.55;2.50;;;23.20;39.10;;;;;;5024616;28;20063;-44
2021/12/19 01:02:04;;;;;;;3.63;2.72;;;23.10;39.10;;;;;;5024812;28;20410;-44
2021/12/19 01:04:30;;;;;;;3.40;2.47;;;23.20;39.20;;;;;;5024253;28;20029;-44
2021/12/19 01:07:00;;;;;;;3.63;2.55;;;23.10;39.20;;;;;;5024888;28;20099;-44
2021/12/19 01:09:27;;;;;;;4.40;3.10;;;23.10;39.20;;;;;;5024512;28;20029;-44
2021/12/19 01:11:53;;;;;;;3.50;2.63;;;23.10;39.20;;;;;;5024954;28;20108;-44
2021/12/19 01:14:19;;;;;;;3.95;2.88;;;23.10;39.20;;;;;;5024200;28;20109;-45
2021/12/19 01:16:44;;;;;;;3.53;2.53;;;23.10;39.20;;;;;;5025085;28;20184;-44
2021/12/19 01:19:10;;;;;;;3.80;2.75;;;23.10;39.30;;;;;;5024759;28;20022;-44
2021/12/19 01:21:36;;;;;;;3.83;2.60;;;23.10;39.30;;;;;;5024202;28;20034;-44
2021/12/19 01:24:02;;;;;;;4.45;2.95;;;23.00;39.10;;;;;;5023720;28;20099;-44
2021/12/19 01:26:28;;;;;;;4.40;2.67;;;23.00;39.10;;;;;;5003864;28;20033;-44
2021/12/19 01:28:54;;;;;;;3.80;2.65;;;23.10;39.20;;;;;;5004079;28;20037;-44
2021/12/19 01:31:20;;;;;;;3.03;2.03;;;23.10;39.20;;;;;;5004537;28;20072;-44
2021/12/19 01:33:46;;;;;;;4.45;3.13;;;23.00;39.10;;;;;;5023651;28;20068;-44
2021/12/19 01:36:12;;;;;;;3.45;2.25;;;23.00;39.10;;;;;;5022869;28;20056;-44
2021/12/19 01:38:38;;;;;;;3.08;2.08;;;23.00;39.80;;;;;;5023995;28;20037;-44
2021/12/19 01:41:04;;;;;;;3.53;2.28;;;23.00;39.10;;;;;;5024248;28;20035;-44
2021/12/19 01:43:31;;;;;;;3.67;2.55;;;23.00;39.10;;;;;;5024232;28;20030;-44
2021/12/19 01:45:58;;;;;;;4.03;2.45;;;23.00;39.10;;;;;;5024086;28;20030;-44
2021/12/19 01:48:24;;;;;;;3.83;2.70;;;23.00;39.10;;;;;;5024060;28;20030;-44
2021/12/19 01:50:51;;;;;;;3.88;2.90;;;22.90;39.20;;;;;;5036714;28;20432;-44
2021/12/19 01:53:17;;;;;;;3.88;2.63;;;22.90;39.10;;;;;;5043903;28;20657;-44
2021/12/19 01:55:45;;;;;;;3.15;2.25;;;22.90;39.10;;;;;;5030664;28;20116;-44
2021/12/19 01:58:12;;;;;;;3.70;2.60;;;22.90;39.10;;;;;;5024217;28;20036;-43
2021/12/19 02:00:45;;;;;;;3.38;2.35;;;22.90;39.20;;;;;;5024288;28;20034;-44
2021/12/19 02:03:12;;;;;;;3.42;2.20;;;22.90;39.20;;;;;;5023764;28;20104;-44
2021/12/19 02:05:38;;;;;;;3.50;2.50;;;22.90;39.20;;;;;;5022640;28;20034;-44
2021/12/19 02:08:05;;;;;;;3.60;2.45;;;22.90;39.20;;;;;;5024082;28;20029;-44
2021/12/19 02:10:32;;;;;;;3.75;2.75;;;22.90;39.30;;;;;;5023580;28;20049;-44
2021/12/19 02:12:59;;;;;;;3.50;2.50;;;22.80;39.20;;;;;;5023706;28;20036;-44
2021/12/19 02:15:27;;;;;;;3.55;2.42;;;22.80;39.20;;;;;;5022290;28;20041;-44
2021/12/19 02:18:03;;;;;;;3.55;2.58;;;22.80;39.10;;;;;;5022754;28;20017;-44
2021/12/19 02:20:35;;;;;;;3.60;2.40;;;22.80;39.10;;;;;;5021950;28;20067;-44
2021/12/19 02:23:02;;;;;;;4.00;2.63;;;22.80;39.10;;;;;;5023282;28;20457;-44
2021/12/19 02:25:29;;;;;;;3.58;2.50;;;22.80;39.10;;;;;;5023788;28;20030;-44
2021/12/19 02:27:55;;;;;;;4.10;3.05;;;22.80;39.10;;;;;;5022642;28;20033;-44
2021/12/19 02:30:20;;;;;;;4.18;2.70;;;22.80;39.20;;;;;;5022682;28;20084;-44
2021/12/19 02:32:46;;;;;;;4.03;2.67;;;22.80;39.20;;;;;;5024811;28;20025;-44
2021/12/19 02:35:19;;;;;;;3.78;2.60;;;22.80;39.10;;;;;;5025611;28;20104;-44
2021/12/19 02:48:28;;;;;;;3.13;2.10;;;22.70;39.20;;;;;;5024142;28;20037;-44
2021/12/19 02:50:55;;;;;;;3.33;2.30;;;22.70;39.20;;;;;;5039923;28;20240;-44
2021/12/19 02:53:36;;;;;;;3.35;2.38;;;22.70;39.20;;;;;;5047146;28;20021;-44
2021/12/19 02:56:04;;;;;;;4.35;2.90;;;22.70;39.20;;;;;;5019825;28;20802;-44
2021/12/19 02:58:31;;;;;;;3.30;2.50;;;22.70;39.90;;;;;;5027126;28;20139;-44
2021/12/19 03:00:59;;;;;;;3.20;2.17;;;22.70;39.20;;;;;;5026171;28;20045;-44
2021/12/19 03:03:24;;;;;;;3.72;2.65;;;22.70;39.20;;;;;;5026514;28;20163;-44
2021/12/19 03:05:50;;;;;;;3.72;2.40;;;22.70;39.30;;;;;;5026678;28;20489;-44
2021/12/19 03:08:16;;;;;;;4.00;2.88;;;22.70;39.30;;;;;;5024945;28;20116;-44
2021/12/19 03:19:12;;;;;;;4.05;2.92;;;22.60;39.20;;;;;;5026819;28;20021;-44
2021/12/19 03:21:38;;;;;;;3.40;2.60;;;22.60;39.40;;;;;;5027106;28;20033;-45
2021/12/19 03:24:04;;;;;;;5.20;2.80;;;22.60;39.50;;;;;;5025718;28;20049;-44
2021/12/19 03:26:30;;;;;;;3.75;2.58;;;22.60;39.50;;;;;;5026430;28;20033;-44
2021/12/19 03:28:55;;;;;;;4.05;2.63;;;22.60;39.60;;;;;;5026204;28;20604;-44
2021/12/19 03:31:21;;;;;;;4.57;3.10;;;22.60;39.50;;;;;;5025126;28;20033;-44
2021/12/19 03:33:47;;;;;;;4.53;3.00;;;22.60;39.50;;;;;;5024695;28;20120;-44
2021/12/19 03:36:13;;;;;;;3.78;2.53;;;22.50;39.50;;;;;;5027328;28;20026;-44
2021/12/19 03:38:43;;;;;;;3.75;2.80;;;22.50;39.50;;;;;;5026919;28;20040;-45
2021/12/19 03:43:40;;;;;;;4.40;3.05;;;22.50;39.50;;;;;;5024479;28;20121;-44
2021/12/19 03:46:06;;;;;;;3.92;2.67;;;22.60;39.40;;;;;;5026098;28;20715;-44
2021/12/19 03:48:32;;;;;;;3.65;2.50;;;22.50;39.50;;;;;;5026238;28;20025;-44
2021/12/19 03:50:58;;;;;;;4.40;3.15;;;22.50;39.30;;;;;;5039616;28;20536;-44
2021/12/19 03:53:24;;;;;;;4.03;2.92;;;22.50;39.20;;;;;;5045087;28;20159;-44
2021/12/19 03:55:51;;;;;;;4.03;2.90;;;22.50;39.20;;;;;;5046343;28;20033;-45
2021/12/19 03:58:18;;;;;;;3.70;2.65;;;22.50;39.20;;;;;;5026936;28;20033;-44
2021/12/19 04:00:45;;;;;;;3.88;2.63;;;22.50;39.20;;;;;;5024728;28;20068;-44
2021/12/19 04:03:17;;;;;;;3.70;2.75;;;22.50;39.20;;;;;;5025285;28;20068;-44
2021/12/19 04:05:44;;;;;;;4.00;2.80;;;22.50;39.20;;;;;;5025967;28;20037;-44
2021/12/19 04:08:10;;;;;;;3.67;2.45;;;22.50;39.10;;;;;;5024820;28;20017;-44
2021/12/19 04:10:36;;;;;;;5.30;2.75;;;22.50;39.20;;;;;;5026045;28;20025;-44
2021/12/19 04:13:02;;;;;;;4.15;2.80;;;22.50;39.20;;;;;;5024999;28;20488;-45
2021/12/19 04:15:27;;;;;;;4.38;2.88;;;22.50;39.10;;;;;;5025809;28;20022;-44
2021/12/19 04:17:53;;;;;;;3.65;2.67;;;22.50;39.10;;;;;;5025275;28;20049;-44
2021/12/19 04:20:19;;;;;;;3.97;2.88;;;22.50;39.10;;;;;;5024944;28;20613;-44
2021/12/19 04:22:50;;;;;;;3.80;2.50;;;22.40;39.10;;;;;;5025558;28;20037;-45
2021/12/19 04:25:17;;;;;;;4.22;2.90;;;22.40;39.10;;;;;;5024928;28;20031;-44
2021/12/19 04:27:44;;;;;;;4.03;2.70;;;22.40;39.10;;;;;;5025495;28;20037;-44
2021/12/19 04:30:13;;;;;;;3.55;2.55;;;22.40;39.10;;;;;;5025305;28;20497;-44
2021/12/19 04:32:44;;;;;;;4.10;2.83;;;22.40;39.10;;;;;;5024943;28;20044;-44
2021/12/19 04:35:10;;;;;;;3.50;2.50;;;22.40;39.10;;;;;;5025179;28;20041;-43
2021/12/19 04:40:14;;;;;;;3.95;2.70;;;22.40;39.00;;;;;;5024925;28;20045;-44
2021/12/19 04:51:20;;;;;;;4.22;3.20;;;22.30;39.00;;;;;;5031314;28;20032;-44
2021/12/19 05:15:51;;;;;;;4.00;2.88;;;22.30;38.90;;;;;;5023786;28;20616;-44
2021/12/19 05:18:18;;;;;;;3.63;2.42;;;22.30;38.90;;;;;;5024872;28;20335;-44
2021/12/19 05:20:53;;;;;;;4.38;3.00;;;22.30;38.90;;;;;;5021619;28;20021;-44
2021/12/19 05:23:27;;;;;;;4.72;3.20;;;22.30;38.90;;;;;;5024240;28;20072;-44
2021/12/19 05:25:53;;;;;;;4.10;2.60;;;22.30;38.90;;;;;;5022871;28;20037;-45
2021/12/19 05:28:19;;;;;;;3.70;2.47;;;22.20;38.80;;;;;;5022403;28;20472;-45
2021/12/19 05:30:45;;;;;;;4.38;3.10;;;22.20;38.90;;;;;;5014874;28;20026;-44
2021/12/19 05:33:11;;;;;;;3.22;2.22;;;22.20;38.80;;;;;;5024017;28;20033;-44
2021/12/19 05:44:14;;;;;;;4.03;2.60;;;22.30;38.90;;;;;;5023422;28;20033;-44
2021/12/19 05:46:40;;;;;;;4.15;2.92;;;22.20;38.80;;;;;;5023383;28;20056;-44
2021/12/19 05:49:07;;;;;;;3.80;2.83;;;22.20;38.80;;;;;;5022821;28;20034;-44
2021/12/19 05:51:37;;;;;;;4.13;2.85;;;22.20;38.80;;;;;;5042553;28;20025;-44
2021/12/19 05:54:04;;;;;;;4.00;2.70;;;22.20;38.80;;;;;;5043784;28;20029;-45
2021/12/19 05:56:31;;;;;;;4.20;2.72;;;22.20;38.80;;;;;;5040177;28;20112;-44
2021/12/19 05:58:57;;;;;;;4.45;2.95;;;22.20;38.80;;;;;;5024019;28;20026;-44
2021/12/19 06:01:22;;;;;;;3.92;2.72;;;22.20;38.80;;;;;;5023869;28;20044;-44
2021/12/19 06:03:48;;;;;;;3.75;2.47;;;22.20;38.80;;;;;;5023787;28;20104;-44
2021/12/19 06:06:14;;;;;;;3.80;2.50;;;22.20;38.80;;;;;;5025741;28;20041;-44
2021/12/19 06:08:40;;;;;;;3.75;2.45;;;22.20;38.80;;;;;;5027932;28;20696;-44
2021/12/19 06:11:05;;;;;;;4.10;2.50;;;22.20;38.90;;;;;;5027709;28;20114;-50
2021/12/19 06:13:31;;;;;;;3.70;2.45;;;22.20;38.90;;;;;;5027783;28;20734;-44
2021/12/19 06:15:57;;;;;;;3.90;2.42;;;22.20;39.00;;;;;;5027809;28;20064;-44
2021/12/19 06:18:23;;;;;;;3.20;2.30;;;22.20;39.20;;;;;;5027722;28;20025;-44
2021/12/19 06:20:49;;;;;;;3.60;2.42;;;22.20;39.20;;;;;;5027490;28;20037;-44
2021/12/19 06:23:15;;;;;;;3.63;2.42;;;22.20;39.20;;;;;;5026380;28;20080;-45
2021/12/19 06:25:45;;;;;;;3.40;2.35;;;22.20;39.30;;;;;;5027975;28;20057;-44
2021/12/19 06:28:18;;;;;;;3.80;2.50;;;22.20;39.30;;;;;;5026918;28;20036;-44
2021/12/19 06:30:45;;;;;;;3.60;2.40;;;22.20;39.40;;;;;;5026561;28;20041;-44
2021/12/19 06:33:11;;;;;;;4.40;3.00;;;22.30;39.40;;;;;;5026438;28;20033;-44
2021/12/19 06:35:37;;;;;;;3.72;2.58;;;22.30;39.40;;;;;;5027282;28;20036;-44
2021/12/19 06:38:03;;;;;;;3.95;2.28;;;22.40;39.50;;;;;;5026968;28;20056;-44
2021/12/19 06:40:29;;;;;;;3.67;2.28;;;22.40;39.40;;;;;;5027511;28;20104;-44
2021/12/19 06:42:55;;;;;;;3.65;2.40;;;22.50;39.50;;;;;;5024935;28;20017;-44
2021/12/19 06:45:22;;;;;;;3.75;2.20;;;22.50;39.40;;;;;;5027266;28;20366;-44
2021/12/19 06:47:48;;;;;;;3.75;2.35;;;22.60;39.40;;;;;;5042422;28;20037;-44
2021/12/19 06:50:15;;;;;;;3.03;1.95;;;22.60;39.30;;;;;;5033980;28;20033;-44
2021/12/19 06:52:42;;;;;;;3.00;1.77;;;22.70;39.30;;;;;;5038129;28;20115;-44
2021/12/19 06:55:09;;;;;;;3.65;2.15;;;22.70;39.30;;;;;;5027395;28;20024;-44
2021/12/19 06:57:35;;;;;;;4.00;2.10;;;22.80;39.20;;;;;;5027084;28;20607;-44
2021/12/19 07:00:08;;;;;;;3.47;2.20;;;22.90;39.10;;;;;;5024537;28;20860;-45
2021/12/19 07:02:34;;;;;;;3.35;2.17;;;23.00;39.10;;;;;;5006288;28;20641;-44
2021/12/19 07:05:00;;;;;;;3.72;2.33;;;23.00;39.00;;;;;;5007129;28;20720;-45
2021/12/19 07:07:25;;;;;;;3.20;2.13;;;23.10;39.00;;;;;;5010961;28;20029;-44
2021/12/19 07:09:51;;;;;;;3.75;2.15;;;23.20;38.90;;;;;;5025974;28;20021;-44
2021/12/19 07:12:17;;;;;;;3.13;1.80;;;23.30;38.90;;;;;;5026357;28;20037;-44
2021/12/19 07:14:44;;;;;;;3.42;2.05;;;23.30;38.70;;;;;;5026404;28;20033;-44
2021/12/19 07:17:11;;;;;;;3.17;1.90;;;23.40;39.20;;;;;;5004858;28;20593;-44
2021/12/19 07:19:36;;;;;;;3.42;2.22;;;23.50;38.50;;;;;;5009623;28;20025;-44
2021/12/19 07:22:03;;;;;;;3.17;1.85;;;23.50;38.40;;;;;;5016663;28;20043;-44
2021/12/19 07:24:29;;;;;;;3.38;2.15;;;23.60;38.30;;;;;;5014321;28;20092;-45
2021/12/19 07:26:54;;;;;;;2.83;1.85;;;23.70;38.30;;;;;;5016417;28;20038;-44
2021/12/19 07:29:20;;;;;;;3.00;1.90;;;23.70;38.20;;;;;;5019254;28;20084;-44
2021/12/19 07:31:46;;;;;;;3.05;2.08;;;23.80;38.10;;;;;;5024087;28;20022;-44
2021/12/19 07:34:12;;;;;;;4.00;2.33;;;23.80;38.00;;;;;;5025291;28;20017;-44
2021/12/19 07:36:42;;;;;;;3.33;1.70;;;23.90;38.00;;;;;;5025598;28;20030;-44
2021/12/19 07:39:20;;;;;;;4.22;2.38;;;24.00;38.00;;;;;;5022951;28;20021;-44
2021/12/19 07:41:46;;;;;;;3.75;1.90;;;24.00;38.60;;;;;;5024757;28;20761;-44
2021/12/19 07:44:12;;;;;;;3.95;2.60;;;24.10;38.80;;;;;;5024429;28;20071;-45
2021/12/19 07:46:37;;;;;;;4.25;2.15;;;24.10;38.70;;;;;;5024506;28;20045;-45
2021/12/19 07:49:03;;;;;;;4.38;3.30;;;24.20;38.80;;;;;;5017743;28;20036;-45
2021/12/19 07:51:29;;;;;;;6.03;3.70;;;24.20;38.90;;;;;;5025438;28;20014;-44
2021/12/19 07:53:55;;;;;;;5.25;3.28;;;24.30;39.10;;;;;;5022920;28;20050;-45
2021/12/19 07:56:20;;;;;;;5.15;3.40;;;24.30;38.90;;;;;;5023709;28;20030;-45
2021/12/19 07:58:46;;;;;;;5.63;4.07;;;24.40;38.70;;;;;;5025311;28;20057;-44
2021/12/19 08:01:12;;;;;;;4.95;3.22;;;24.40;38.50;;;;;;5024423;28;20108;-44
2021/12/19 08:03:37;;;;;;;5.38;3.85;;;24.40;38.40;;;;;;5025339;28;20727;-45
2021/12/19 08:06:03;;;;;;;5.28;3.38;;;24.50;38.30;;;;;;5040356;28;20036;-45
2021/12/19 08:08:32;;;;;;;4.55;3.00;;;24.50;38.10;;;;;;5025351;28;20021;-45
2021/12/19 08:13:43;;;;;;;4.50;3.10;;;24.60;37.90;;;;;;5024410;28;20084;-45
2021/12/19 08:16:08;;;;;;;4.30;3.05;;;24.60;37.70;;;;;;5012951;28;20582;-45
2021/12/19 08:18:34;;;;;;;4.60;3.40;;;24.60;37.40;;;;;;5004899;28;20025;-45
2021/12/19 08:21:01;;;;;;;4.72;3.20;;;24.70;37.50;;;;;;5004600;28;20030;-45
2021/12/19 08:23:26;;;;;;;4.10;2.70;;;24.70;37.40;;;;;;5017652;28;20082;-45
2021/12/19 08:25:52;;;;;;;4.32;2.95;;;24.70;37.20;;;;;;5025009;28;20029;-45
2021/12/19 08:28:18;;;;;;;4.57;3.10;;;24.70;37.10;;;;;;5025536;28;20697;-44
2021/12/19 08:30:43;;;;;;;5.65;3.63;;;24.70;37.40;;;;;;5017841;28;20163;-44
2021/12/19 08:33:09;;;;;;;4.22;3.05;;;24.70;37.50;;;;;;5019317;28;20075;-44
2021/12/19 08:35:35;;;;;;;4.30;2.95;;;24.70;37.20;;;;;;5024413;28;20057;-45
2021/12/19 08:38:00;;;;;;;4.72;3.08;;;24.70;37.30;;;;;;5012057;28;20018;-45
2021/12/19 08:40:28;;;;;;;6.00;3.05;;;24.70;37.30;;;;;;5014522;28;20068;-45
2021/12/19 08:42:54;;;;;;;4.57;3.20;;;24.70;37.20;;;;;;5022695;28;20025;-44
2021/12/19 08:45:21;;;;;;;5.72;2.97;;;24.70;37.30;;;;;;5019369;28;20034;-44
2021/12/19 08:47:47;;;;;;;9.27;3.38;;;24.70;37.10;;;;;;5021712;28;20029;-44
2021/12/19 08:50:13;;;;;;;6.95;3.40;;;24.70;36.90;;;;;;5023394;28;20029;-44
2021/12/19 08:52:40;;;;;;;6.28;3.22;;;24.70;36.90;;;;;;5023138;28;20022;-44
2021/12/19 08:55:07;;;;;;;5.95;3.10;;;24.70;36.80;;;;;;5024853;28;20029;-45
2021/12/19 08:57:33;;;;;;;6.30;3.30;;;24.60;36.80;;;;;;5023438;28;20026;-44
2021/12/19 08:59:59;;;;;;;5.40;3.22;;;24.60;36.50;;;;;;5024305;28;20624;-44
2021/12/19 09:02:25;;;;;;;5.10;2.95;;;24.70;36.50;;;;;;5023845;28;20223;-44
2021/12/19 09:04:51;;;;;;;4.97;2.80;;;24.60;36.50;;;;;;5007384;28;20026;-44
2021/12/19 09:07:18;;;;;;;6.72;2.90;;;24.60;36.30;;;;;;5004849;28;20026;-44
2021/12/19 09:09:45;;;;;;;7.25;3.45;;;24.60;36.20;;;;;;5004119;28;20109;-44
2021/12/19 09:12:11;;;;;;;5.40;3.00;;;24.60;36.10;;;;;;5003988;28;20569;-44
2021/12/19 09:14:38;;;;;;;3.95;2.72;;;24.60;36.20;;;;;;5034710;28;20061;-44
2021/12/19 09:17:04;;;;;;;6.00;2.72;;;24.60;36.10;;;;;;5020339;28;20418;-44
2021/12/19 09:19:30;;;;;;;4.38;2.85;;;24.60;35.90;;;;;;5021496;28;20029;-44
2021/12/19 09:21:56;;;;;;;4.88;2.75;;;24.60;36.10;;;;;;5021884;28;20029;-44
2021/12/19 09:24:21;;;;;;;5.57;2.85;;;24.60;36.00;;;;;;5023396;28;20025;-44
2021/12/19 09:26:47;;;;;;;4.43;3.00;;;24.60;36.30;;;;;;5021951;28;20453;-44
2021/12/19 09:29:13;;;;;;;4.22;2.58;;;24.60;36.10;;;;;;5023498;28;20022;-44
2021/12/19 09:31:39;;;;;;;3.80;2.40;;;24.60;36.10;;;;;;5009696;28;20026;-44
2021/12/19 09:34:06;;;;;;;4.00;2.50;;;24.60;36.10;;;;;;5003223;28;20505;-48
2021/12/19 09:36:32;;;;;;;3.88;2.53;;;24.60;36.10;;;;;;5021599;28;20026;-44
2021/12/19 09:38:58;;;;;;;4.47;2.78;;;24.60;36.20;;;;;;5023146;28;20029;-44
2021/12/19 09:41:29;;;;;;;3.70;2.30;;;24.60;36.10;;;;;;5006336;28;20029;-44
2021/12/19 09:44:04;;;;;;;3.25;2.22;;;24.60;36.00;;;;;;5002372;28;20105;-44
2021/12/19 09:46:34;;;;;;;4.22;2.80;;;24.60;36.20;;;;;;5015441;28;20028;-46
2021/12/19 09:48:59;;;;;;;4.32;2.38;;;24.60;36.30;;;;;;5022413;28;20754;-44
2021/12/19 09:51:25;;;;;;;3.67;2.03;;;24.60;36.20;;;;;;5041239;28;20068;-44
2021/12/19 09:53:51;;;;;;;3.50;2.20;;;24.60;36.20;;;;;;5040612;28;20029;-44
2021/12/19 09:56:17;;;;;;;3.75;2.20;;;24.60;36.20;;;;;;5040375;28;20040;-44
2021/12/19 09:58:43;;;;;;;3.90;2.35;;;24.60;36.10;;;;;;5022904;28;20022;-44
2021/12/19 10:01:11;;;;;;;4.30;2.42;;;24.60;36.10;;;;;;5023201;28;20615;-45
2021/12/19 10:03:38;;;;;;;4.18;2.17;;;24.60;36.20;;;;;;5022227;28;20402;-44
2021/12/19 10:06:18;;;;;;;3.38;1.90;;;24.60;36.40;;;;;;5009233;28;20169;-44
2021/12/19 10:08:45;;;;;;;3.38;2.00;;;24.60;36.30;;;;;;5003625;28;20108;-44
2021/12/19 10:12:24;;;;;;;4.97;1.95;;;24.50;36.20;;;;;;5004055;28;20022;-44
2021/12/19 10:14:34;;;;;;;3.53;1.83;;;24.50;36.20;;;;;;5005063;28;20026;-44
2021/12/19 10:17:04;;;;;;;4.30;2.08;;;24.50;35.90;;;;;;5013976;28;20044;-44
2021/12/19 10:19:42;;;;;;;4.10;2.00;;;24.50;35.90;;;;;;5021057;28;20623;-44
2021/12/19 10:22:42;;;;;;;5.93;1.88;;;24.50;36.00;;;;;;5002347;28;20025;-44
2021/12/19 10:25:18;;;;;;;3.80;2.05;;;24.40;36.00;;;;;;5006672;28;20033;-44
2021/12/19 10:28:05;;;;;;;3.97;1.70;;;24.50;36.10;;;;;;5020474;28;20026;-44
2021/12/19 10:30:31;;;;;;;3.45;1.80;;;24.50;36.10;;;;;;5021712;28;20028;-44
2021/12/19 10:33:01;;;;;;;6.32;2.10;;;24.50;36.00;;;;;;5022557;28;20038;-44
2021/12/19 10:35:32;;;;;;;4.28;1.65;;;24.40;35.90;;;;;;5022439;28;20478;-44
2021/12/19 10:38:00;;;;;;;2.95;1.70;;;24.40;35.60;;;;;;5023107;28;20037;-44
2021/12/19 10:40:26;;;;;;;3.70;1.95;;;24.40;35.70;;;;;;5022370;28;20021;-44
2021/12/19 10:43:04;;;;;;;3.75;1.55;;;24.40;35.80;;;;;;5022562;28;20034;-44
2021/12/19 10:45:43;;;;;;;5.35;2.63;;;24.40;35.80;;;;;;5022509;28;20037;-44
2021/12/19 10:48:14;;;;;;;3.72;2.20;;;24.40;35.90;;;;;;5021699;28;20061;-44
2021/12/19 10:50:47;;;;;;;4.88;1.77;;;24.40;35.80;;;;;;5024135;28;20041;-44
2021/12/19 10:53:15;;;;;;;3.95;1.83;;;24.40;35.90;;;;;;5025515;28;20414;-44
2021/12/19 10:55:46;;;;;;;3.50;1.98;;;24.40;35.90;;;;;;5023940;28;20255;-44
2021/12/19 10:58:28;;;;;;;2.75;1.70;;;24.40;35.70;;;;;;5024503;28;20163;-44
2021/12/19 11:01:04;;;;;;;3.00;1.67;;;24.40;35.70;;;;;;5026741;28;20026;-44
2021/12/19 11:03:46;;;;;;;3.22;1.90;;;24.40;35.70;;;;;;5026897;28;20239;-44
2021/12/19 11:06:22;;;;;;;3.03;1.60;;;24.40;35.60;;;;;;5026156;28;20061;-44
2021/12/19 11:08:49;;;;;;;2.88;1.30;;;24.40;35.60;;;;;;5025181;28;20517;-44
2021/12/19 11:11:39;;;;;;;2.78;1.25;;;24.40;35.70;;;;;;5026617;28;20057;-44
2021/12/19 11:14:07;;;;;;;2.78;1.60;;;24.40;35.70;;;;;;5023272;28;20087;-44
2021/12/19 11:16:33;;;;;;;4.03;1.90;;;24.30;35.80;;;;;;5005218;28;20032;-44
2021/12/19 11:18:58;;;;;;;2.88;1.88;;;24.40;35.90;;;;;;5011538;28;20025;-44
2021/12/19 11:21:24;;;;;;;3.33;1.70;;;24.40;36.10;;;;;;5025568;28;20599;-44
2021/12/19 11:23:50;;;;;;;2.92;1.40;;;24.40;36.30;;;;;;5024545;28;20037;-44
2021/12/19 11:26:20;;;;;;;3.17;1.85;;;24.30;36.30;;;;;;5025792;28;20021;-44
2021/12/19 11:28:48;;;;;;;2.78;1.60;;;24.30;36.50;;;;;;5024352;28;20017;-45
2021/12/19 11:31:14;;;;;;;2.67;1.45;;;24.30;36.50;;;;;;5025751;28;20385;-44
2021/12/19 11:34:03;;;;;;;2.35;1.30;;;24.40;36.50;;;;;;5025972;28;20033;-45
2021/12/19 11:36:39;;;;;;;2.63;1.40;;;24.30;36.60;;;;;;5025369;28;20029;-45
2021/12/19 11:39:06;;;;;;;2.50;1.30;;;24.40;36.40;;;;;;5026206;28;20069;-44
2021/12/19 11:41:33;;;;;;;3.08;1.30;;;24.40;36.40;;;;;;5025325;28;20029;-44
2021/12/19 11:44:05;;;;;;;2.65;1.40;;;24.40;36.40;;;;;;5025117;28;20021;-44
2021/12/19 11:46:55;;;;;;;1.88;1.05;;;24.40;36.50;;;;;;5025462;28;20037;-44
2021/12/19 11:49:27;;;;;;;2.28;0.85;;;24.40;36.50;;;;;;5026183;28;20033;-44
2021/12/19 11:52:23;;;;;;;3.42;1.40;;;24.30;36.40;;;;;;5045774;28;20040;-44
2021/12/19 11:55:19;;;;;;;2.55;1.48;;;24.40;36.40;;;;;;5006744;28;20033;-44
2021/12/19 11:58:07;;;;;;;2.38;1.30;;;24.40;36.40;;;;;;5025025;28;20046;-44
2021/12/19 12:00:39;;;;;;;2.47;1.10;;;24.40;36.30;;;;;;5025355;28;20044;-44
2021/12/19 12:03:13;;;;;;;2.53;1.38;;;24.40;36.30;;;;;;5024539;28;20055;-44
2021/12/19 12:05:44;;;;;;;2.65;1.13;;;24.30;36.30;;;;;;5004767;28;20437;-44
2021/12/19 12:08:16;;;;;;;2.95;1.30;;;24.30;36.30;;;;;;5018463;28;20087;-44
2021/12/19 12:10:51;;;;;;;3.22;1.40;;;24.30;36.30;;;;;;5024870;28;20025;-44
2021/12/19 12:13:23;;;;;;;2.90;1.35;;;24.30;36.30;;;;;;5023833;28;20033;-44
2021/12/19 12:15:52;;;;;;;2.60;1.27;;;24.30;36.40;;;;;;5024806;28;20110;-44
2021/12/19 12:18:39;;;;;;;2.75;1.42;;;24.30;36.40;;;;;;5014179;28;20057;-43
2021/12/19 12:21:26;;;;;;;3.33;1.60;;;24.30;36.70;;;;;;5009773;28;20025;-44
2021/12/19 12:24:18;;;;;;;3.30;1.85;;;24.30;37.00;;;;;;5023485;28;20049;-44
2021/12/19 12:26:49;;;;;;;3.13;1.50;;;24.30;37.10;;;;;;5025140;28;20734;-44
2021/12/19 12:29:15;;;;;;;3.60;1.65;;;24.30;37.60;;;;;;5021045;28;20151;-44
2021/12/19 12:31:46;;;;;;;2.97;1.60;;;24.30;37.60;;;;;;5023053;28;20044;-44
2021/12/19 12:34:14;;;;;;;3.38;1.70;;;24.30;37.40;;;;;;5022933;28;20045;-44
2021/12/19 12:36:40;;;;;;;2.88;1.60;;;24.40;37.60;;;;;;5023516;28;20655;-44
2021/12/19 12:39:17;;;;;;;2.92;1.58;;;24.30;37.60;;;;;;5022747;28;20029;-44
2021/12/19 12:44:16;;;;;;;3.00;1.50;;;24.30;37.70;;;;;;5021335;28;20025;-44
2021/12/19 12:46:43;;;;;;;5.80;2.08;;;24.30;37.70;;;;;;5022922;28;20219;-45
2021/12/19 12:49:34;;;;;;;3.90;1.90;;;24.30;37.50;;;;;;5023321;28;20704;-44
2021/12/19 12:52:06;;;;;;;3.03;1.60;;;24.30;37.50;;;;;;5027885;28;20037;-45
2021/12/19 12:54:38;;;;;;;3.50;1.98;;;24.30;37.50;;;;;;5022788;28;20205;-44
2021/12/19 12:57:08;;;;;;;3.35;1.40;;;24.30;37.40;;;;;;5024186;28;20026;-44
2021/12/19 12:59:38;;;;;;;3.10;1.55;;;24.30;37.40;;;;;;5023111;28;20613;-44
2021/12/19 13:02:13;;;;;;;3.60;1.85;;;24.30;37.30;;;;;;5023165;28;20061;-44
2021/12/19 13:04:43;;;;;;;4.15;1.50;;;24.30;37.20;;;;;;5024160;28;20026;-44
2021/12/19 13:07:15;;;;;;;4.20;1.60;;;24.30;37.20;;;;;;5023067;28;20489;-44
2021/12/19 13:09:49;;;;;;;3.47;1.50;;;24.30;37.10;;;;;;5024136;28;20033;-44
2021/12/19 13:12:20;;;;;;;4.15;1.30;;;24.30;37.10;;;;;;5023749;28;20489;-44
2021/12/19 13:15:00;;;;;;;4.43;1.75;;;24.20;37.20;;;;;;5021757;28;20036;-45
2021/12/19 13:17:30;;;;;;;2.80;1.60;;;24.20;37.20;;;;;;5020463;28;20545;-45
2021/12/19 13:20:02;;;;;;;3.55;1.52;;;24.20;37.20;;;;;;5016504;28;20065;-44
2021/12/19 13:22:47;;;;;;;3.10;1.60;;;24.20;37.00;;;;;;5021482;28;20029;-45
2021/12/19 13:25:18;;;;;;;4.57;1.67;;;24.20;37.10;;;;;;5023612;28;20036;-44
2021/12/19 13:27:47;;;;;;;4.47;2.25;;;24.20;37.20;;;;;;5022300;28;20037;-44
2021/12/19 13:30:19;;;;;;;12.30;4.93;;;24.20;37.40;;;;;;5019529;28;20025;-45
2021/12/19 13:32:56;;;;;;;32.92;11.07;;;24.20;37.50;;;;;;5022772;28;20498;-44
2021/12/19 13:35:24;;;;;;;37.10;13.15;;;24.20;37.40;;;;;;5020469;28;20079;-44
2021/12/19 13:38:03;;;;;;;35.40;13.85;;;24.20;37.40;;;;;;5022001;28;20382;-45
2021/12/19 13:40:33;;;;;;;31.00;11.68;;;24.20;37.30;;;;;;5020988;28;20143;-45
2021/12/19 13:43:02;;;;;;;31.23;12.35;;;24.20;37.00;;;;;;5023731;28;20477;-44
2021/12/19 13:45:28;;;;;;;30.25;12.32;;;24.20;37.10;;;;;;5023103;28;20627;-44
2021/12/19 13:47:55;;;;;;;25.45;10.40;;;24.20;36.60;;;;;;5022997;28;20120;-45
2021/12/19 13:50:22;;;;;;;22.85;8.98;;;24.20;36.50;;;;;;5024125;28;20084;-44
2021/12/19 13:52:48;;;;;;;23.77;8.88;;;24.20;36.40;;;;;;5023673;28;20025;-44
2021/12/19 13:55:15;;;;;;;20.67;8.38;;;24.10;36.20;;;;;;5024467;28;20104;-45
2021/12/19 13:57:42;;;;;;;19.95;8.68;;;24.10;36.50;;;;;;5023989;28;20041;-44
2021/12/19 14:00:25;;;;;;;18.02;7.82;;;24.20;36.50;;;;;;5024474;28;20030;-44
2021/12/19 14:02:51;;;;;;;18.35;7.50;;;24.10;36.60;;;;;;5023747;28;20030;-44
2021/12/19 14:05:33;;;;;;;17.88;7.75;;;24.10;36.60;;;;;;5024175;28;20034;-44
2021/12/19 14:07:59;;;;;;;15.73;7.47;;;24.10;36.40;;;;;;5024067;28;20108;-44
2021/12/19 14:10:25;;;;;;;16.27;6.85;;;24.10;36.40;;;;;;5016711;28;20447;-44
2021/12/19 14:13:15;;;;;;;14.07;6.55;;;24.10;36.40;;;;;;5004450;28;20034;-45